• Join FlightAware (Why Join?)
  • Login
  • US Flag 
06:52PM EDT


 

Airport Tracker/Info


-or-


 

Live Flight TrackerFlight Track Log ✈ AWE3268 ✈ 26-Jun-2013 ✈ KPHL - KMHT

Flight Track Log - Related Links

Times and Time Zones

All times are in EDT time to prevent confusion due to time zone crossing. See the AWE3268 flight status page for this flight to view local times or setup timezone preferences in your user account.

Time Position Orientation Groundspeed Altitude Reporting Facility
EDT Latitude Longitude Course Direction KTS MPH feet Rate Location/Type
04:26PM 39.8667 -75.2667 37° Northeast 140 161 600  Level Philadelphia TRACON
04:27PM 39.8333 -75.3000 218° Southwest 195 224 1,700 1,680 Climbing Philadelphia TRACON
04:28PM 39.7833 -75.3500 218° Southwest 247 284 3,900 2,340 Climbing Philadelphia TRACON
04:29PM 39.8022 -74.7943 105° East  Level FlightAware Approximate
04:29PM 39.7167 -75.3333 169° South 293 337 6,500  Level Philadelphia TRACON
04:30PM 39.7937 -74.6897 37° Northeast  Level FlightAware Approximate
04:30PM 39.7167 -75.2333 90° East 315 362 9,000  Level Philadelphia TRACON
04:31PM 39.8634 -74.6200 37° Northeast  Level FlightAware Approximate
04:31PM 39.7333 -75.1167 79° East 340 391 10,800  Level Philadelphia TRACON
04:33PM 39.7686 -74.8869 79° East 374 430 12,000 900 Climbing New York Center
04:34PM 39.7878 -74.7556 79° East 365 420 13,400 1,680 Climbing New York Center
04:35PM 39.8536 -74.6592 48° Northeast 343 395 15,400 1,920 Climbing New York Center
04:36PM 39.9375 -74.5772 37° Northeast 356 410 17,200 1,680 Climbing New York Center
04:37PM 40.0194 -74.4950 38° Northeast 361 415 18,800 1,500 Climbing New York Center
04:38PM 40.1075 -74.4075 37° Northeast 380 437 20,300 1,380 Climbing New York Center
04:39PM 40.1956 -74.3197 37° Northeast 391 450 21,700 1,320 Climbing New York Center
04:40PM 40.2900 -74.2347 34° Northeast 397 457 23,000 1,320 Climbing New York Center
04:41PM 40.4006 -74.2294 North 380 437 24,300 1,140 Climbing New York Center
04:42PM 40.5111 -74.2214 North 385 443 25,400 1,080 Climbing New York Center
04:43PM 40.6242 -74.2081 North 396 456 26,500 1,080 Climbing New York Center
04:44PM 40.8197 -74.1789 North 414 476 28,300 1,020 Climbing Boston Center
04:45PM 40.9306 -74.1572 North 419 482 29,300 1,140 Climbing Boston Center
04:46PM 41.0475 -74.1356 North 425 489 30,600 840 Climbing Boston Center
04:47PM 41.1731 -74.1111 North 430 495 31,000 180 Climbing Boston Center
04:48PM 41.2922 -74.0839 10° North 435 501 31,000  Level Boston Center
04:49PM 41.4156 -74.0622 North 441 507 31,000  Level Boston Center
04:50PM 41.5408 -74.0403 North 441 507 31,000  Level Boston Center
04:51PM 41.6619 -74.0156 North 447 514 31,000  Level Boston Center
04:52PM 41.7853 -73.9908 North 447 514 31,000 -300 Level Boston Center
04:53PM 41.9192 -73.9664 North 441 507 30,400 -1,020 Descending Boston Center
04:54PM 42.0206 -73.8597 38° Northeast 429 494 29,000 -1,440 Descending Boston Center
04:55PM 42.0931 -73.7186 55° Northeast 440 506 27,600 -1,320 Descending Boston Center
04:56PM 42.1611 -73.5800 56° Northeast 482 555 26,400 -1,320 Descending Boston Center
04:57PM 42.2292 -73.4383 57° Northeast 463 533 25,000 -1,500 Descending Boston Center
04:58PM 42.2992 -73.3047 55° Northeast 430 495 23,400 -1,440 Descending Boston Center
04:59PM 42.3583 -73.1733 59° Northeast 425 489 22,200 -1,320 Descending Boston Center
05:00PM 42.4217 -73.0475 56° Northeast 419 482 20,800 -1,440 Descending Boston Center
05:01PM 42.4847 -72.9242 55° Northeast 405 466 19,400 -900 Descending Boston Center
05:02PM 42.5414 -72.8092 56° Northeast 382 440 19,000 -300 Descending Boston Center
05:03PM 42.5919 -72.6797 62° Northeast 382 440 18,900 -1,080 Descending Boston Center
05:04PM 42.6339 -72.5503 66° East 376 433 16,900 -2,100 Descending Boston Center
05:05PM 42.6733 -72.4203 68° East 371 427 14,800 -2,100 Descending Boston Center
05:07PM 42.7333 -72.1833 71° East 347 399 11,200 -1,800 Descending KA90
05:08PM 42.7833 -72.0667 60° Northeast 316 364 9,800 -1,620 Descending KA90
05:09PM 42.7667 -71.9667 103° East 307 353 8,000 -1,500 Descending KA90
05:10PM 42.7500 -71.8500 101° East 299 344 7,000 -1,200 Descending KA90
05:11PM 42.7667 -71.7500 77° East 303 349 5,600 -1,500 Descending KA90
05:12PM 42.7667 -71.6333 90° East 297 342 4,000 -1,320 Descending KA90
05:13PM 42.7667 -71.5333 90° East 276 318 3,000 -540 Descending KA90
05:14PM 42.7667 -71.4500 90° East 244 281 3,000 -180 Level KA90
05:15PM 42.7500 -71.3667 105° East 210 242 2,700 -480 Descending KA90
05:16PM 42.7833 -71.3500 20° North 175 201 2,100 -660 Descending KA90